»·PEaware :: N74201 KSMX-KBFL

N74201 :: KSMX-KBFL

FLIGHT INFORMATION

Flight Status: Arrived
Operator: Privately registered:
United States
More flights under this callsign
Pilot: Jeff W. (31011)
Aircraft: CESSNA 172 SKYHAWK
(C172)
More flights by this aircraft type
Origin: KSMX Santa Maria Pub/Capt Hancock
United States
Destination: KBFL Meadows
United States
More flights between these airports :: More routes between these airports
Route: FLEW
File this flight plan on PilotEdge
Remarks:
Altitude:
(Current/Filed)
5,500ft
Speed:
(Current/Filed)
114kts
Departed: 15-Jan-21 02:02 PM
Arrived: 15-Jan-21 02:45 PM
Distance/Time
Traveled:
76nm/0:43
Distance/Time
To Go:
Arrived

Flight Plot

Page will automatically refresh every two minutes.

Flight plan parsing failed; only flown route is shown


Map Options




Map Legend


Flown Route
Filed Route
Departure Airport
Arrival Airport
Navaid (VOR, NDB)
Fix

Horizontal Profiles

Position Reports

Time Latitude Longitude Heading Altitude Ground
Speed
15-Jan-21 13:45 34.906336 -120.457588 132 264ft 0kts
15-Jan-21 13:46 34.906335 -120.457587 132 264ft 0kts
15-Jan-21 13:47 34.906335 -120.457587 132 264ft 0kts
15-Jan-21 13:48 34.906334 -120.457585 132 264ft 0kts
15-Jan-21 13:49 34.906333 -120.457584 132 264ft 0kts
15-Jan-21 13:50 34.906333 -120.457584 132 264ft 0kts
15-Jan-21 13:51 34.906333 -120.457584 132 264ft 0kts
15-Jan-21 13:52 34.906265 -120.458242 239 264ft 4kts
15-Jan-21 13:53 34.904081 -120.456900 136 264ft 14kts
15-Jan-21 13:54 34.900423 -120.452747 142 264ft 20kts
15-Jan-21 13:55 34.895982 -120.447519 135 264ft 15kts
15-Jan-21 13:56 34.894409 -120.445725 149 264ft 0kts
15-Jan-21 13:57 34.894408 -120.445724 149 264ft 0kts
15-Jan-21 13:59 34.894408 -120.445724 149 264ft 0kts
15-Jan-21 14:00 34.894023 -120.445615 181 264ft 0kts
15-Jan-21 14:01 34.894022 -120.445615 181 264ft 0kts
15-Jan-21 14:02 34.898949 -120.454134 317 313ft 78kts
15-Jan-21 14:03 34.914044 -120.458059 94 944ft 86kts
15-Jan-21 14:04 34.916344 -120.427878 72 1694ft 93kts
15-Jan-21 14:05 34.925370 -120.397862 68 2398ft 94kts
15-Jan-21 14:06 34.934715 -120.368403 68 3088ft 92kts
15-Jan-21 14:07 34.943894 -120.339477 67 3777ft 90kts
15-Jan-21 14:08 34.952783 -120.311442 65 4459ft 87kts
15-Jan-21 14:09 34.961457 -120.284065 62 5130ft 85kts
15-Jan-21 14:10 34.970576 -120.255427 63 5540ft 107kts
15-Jan-21 14:11 34.982408 -120.217936 64 5501ft 122kts
15-Jan-21 14:12 34.994683 -120.179016 64 5500ft 122kts
15-Jan-21 14:13 35.006954 -120.140103 64 5500ft 122kts
15-Jan-21 14:14 35.019232 -120.101124 64 5500ft 122kts
15-Jan-21 14:15 35.031469 -120.062223 64 5499ft 122kts
15-Jan-21 14:16 35.043700 -120.023289 64 5500ft 122kts
15-Jan-21 14:16 35.053916 -119.990730 64 5500ft 122kts
15-Jan-21 14:17 35.066111 -119.951816 64 5500ft 122kts
15-Jan-21 14:19 35.080334 -119.906368 64 5502ft 122kts
15-Jan-21 14:19 35.089186 -119.878000 62 5908ft 104kts
15-Jan-21 14:20 35.100600 -119.847400 56 6472ft 96kts
15-Jan-21 14:21 35.112502 -119.818464 56 7052ft 93kts
15-Jan-21 14:22 35.124042 -119.790499 56 7539ft 99kts
15-Jan-21 14:23 35.138953 -119.754302 58 7506ft 130kts
15-Jan-21 14:24 35.155264 -119.714516 58 7500ft 131kts
15-Jan-21 14:25 35.171625 -119.674641 58 7499ft 131kts
15-Jan-21 14:26 35.188053 -119.634565 58 7500ft 131kts
15-Jan-21 14:27 35.204386 -119.594674 58 7500ft 131kts
15-Jan-21 14:28 35.220767 -119.554618 58 7500ft 131kts
15-Jan-21 14:29 35.237090 -119.514654 58 7500ft 131kts
15-Jan-21 14:30 35.253394 -119.474691 58 7500ft 131kts
15-Jan-21 14:31 35.269737 -119.434582 58 7500ft 131kts
15-Jan-21 14:32 35.285759 -119.395212 59 7499ft 131kts
15-Jan-21 14:33 35.302094 -119.355028 59 7500ft 131kts
15-Jan-21 14:34 35.318559 -119.314520 59 7367ft 140kts
15-Jan-21 14:35 35.336524 -119.270186 59 6883ft 147kts
15-Jan-21 14:36 35.354666 -119.225332 58 6380ft 146kts
15-Jan-21 14:37 35.372209 -119.181909 58 5678ft 134kts
15-Jan-21 14:38 35.387120 -119.141189 63 4975ft 128kts
15-Jan-21 14:39 35.387322 -119.100807 94 4246ft 101kts
15-Jan-21 14:40 35.384746 -119.070082 94 3072ft 94kts
15-Jan-21 14:41 35.385670 -119.038931 28 1644ft 89kts
15-Jan-21 14:42 35.405738 -119.028221 23 1033ft 69kts
15-Jan-21 14:43 35.421579 -119.041574 312 585ft 74kts
15-Jan-21 14:44 35.434641 -119.057189 315 510ft 28kts
15-Jan-21 14:45 35.436179 -119.057891 48 510ft 0kts
15-Jan-21 14:46 35.436318 -119.057702 49 510ft 11kts
15-Jan-21 14:47 35.437159 -119.057258 198 510ft 0kts
15-Jan-21 14:48 35.437159 -119.057258 198 510ft 0kts
15-Jan-21 14:49 35.432872 -119.045334 137 510ft 0kts
15-Jan-21 14:50 35.432872 -119.045334 137 510ft 0kts
15-Jan-21 14:51 35.432872 -119.045334 137 510ft 0kts
15-Jan-21 14:52 35.432872 -119.045334 137 510ft 0kts

Navigation Log

Ident Type
Flight plan parsing failed, navigation log unavailable